sensor_id;sensor_type;location;lat;lon;timestamp;P1;P2;P0
56360;PMS7003;42611;51.132;13.588;2022-10-03T00:07:09;3.8;2.6;
56360;PMS7003;42611;51.132;13.588;2022-10-03T00:12:30;4.2;2.9;
56360;PMS7003;42611;51.132;13.588;2022-10-03T00:17:05;3.6;2.8;
56360;PMS7003;42611;51.132;13.588;2022-10-03T00:22:09;3.7;2.7;
56360;PMS7003;42611;51.132;13.588;2022-10-03T00:27:05;3.5;2.6;
56360;PMS7003;42611;51.132;13.588;2022-10-03T01:02:46;2.2;1.8;
56360;PMS7003;42611;51.132;13.588;2022-10-03T01:07:04;2.5;2.0;
56360;PMS7003;42611;51.132;13.588;2022-10-03T01:12:12;3.7;2.2;
56360;PMS7003;42611;51.132;13.588;2022-10-03T01:22:15;4.6;2.4;
56360;PMS7003;42611;51.132;13.588;2022-10-03T01:27:05;5.4;2.8;
56360;PMS7003;42611;51.132;13.588;2022-10-03T01:32:04;4.8;2.5;
56360;PMS7003;42611;51.132;13.588;2022-10-03T01:38:16;3.8;2.5;
56360;PMS7003;42611;51.132;13.588;2022-10-03T01:42:05;3.6;2.4;
56360;PMS7003;42611;51.132;13.588;2022-10-03T01:47:08;3.2;2.2;
56360;PMS7003;42611;51.132;13.588;2022-10-03T01:52:08;2.5;2.0;
56360;PMS7003;42611;51.132;13.588;2022-10-03T01:57:52;2.7;1.9;
56360;PMS7003;42611;51.132;13.588;2022-10-03T02:02:12;2.2;1.4;
56360;PMS7003;42611;51.132;13.588;2022-10-03T02:07:04;2.3;1.5;
56360;PMS7003;42611;51.132;13.588;2022-10-03T02:12:07;2.2;1.5;
56360;PMS7003;42611;51.132;13.588;2022-10-03T02:17:05;3.0;1.6;
56360;PMS7003;42611;51.132;13.588;2022-10-03T02:22:01;2.9;2.0;
56360;PMS7003;42611;51.132;13.588;2022-10-03T02:42:24;3.0;2.2;
56360;PMS7003;42611;51.132;13.588;2022-10-03T02:47:30;3.5;2.7;
56360;PMS7003;42611;51.132;13.588;2022-10-03T02:57:19;4.6;3.1;
56360;PMS7003;42611;51.132;13.588;2022-10-03T03:02:07;5.3;3.3;
56360;PMS7003;42611;51.132;13.588;2022-10-03T03:07:08;5.7;3.8;
56360;PMS7003;42611;51.132;13.588;2022-10-03T03:12:07;6.1;3.6;
56360;PMS7003;42611;51.132;13.588;2022-10-03T03:17:38;6.4;4.1;
56360;PMS7003;42611;51.132;13.588;2022-10-03T03:27:12;6.6;4.8;
56360;PMS7003;42611;51.132;13.588;2022-10-03T03:32:07;7.2;5.3;
56360;PMS7003;42611;51.132;13.588;2022-10-03T03:37:05;7.8;5.7;
56360;PMS7003;42611;51.132;13.588;2022-10-03T03:42:36;7.6;5.9;
56360;PMS7003;42611;51.132;13.588;2022-10-03T03:47:08;7.2;5.8;
56360;PMS7003;42611;51.132;13.588;2022-10-03T03:52:10;7.0;5.5;
56360;PMS7003;42611;51.132;13.588;2022-10-03T03:57:08;6.7;5.3;
56360;PMS7003;42611;51.132;13.588;2022-10-03T04:02:05;6.0;4.8;
56360;PMS7003;42611;51.132;13.588;2022-10-03T04:07:05;6.4;4.6;
56360;PMS7003;42611;51.132;13.588;2022-10-03T04:12:08;6.5;4.8;
56360;PMS7003;42611;51.132;13.588;2022-10-03T04:17:13;6.6;5.1;
56360;PMS7003;42611;51.132;13.588;2022-10-03T04:22:06;6.4;5.1;
56360;PMS7003;42611;51.132;13.588;2022-10-03T04:27:06;6.2;5.4;
56360;PMS7003;42611;51.132;13.588;2022-10-03T04:32:07;5.6;5.3;
56360;PMS7003;42611;51.132;13.588;2022-10-03T04:42:08;6.3;5.8;
56360;PMS7003;42611;51.132;13.588;2022-10-03T04:47:05;6.8;6.1;
56360;PMS7003;42611;51.132;13.588;2022-10-03T05:02:03;7.6;6.9;
56360;PMS7003;42611;51.132;13.588;2022-10-03T05:08:18;7.9;6.9;
56360;PMS7003;42611;51.132;13.588;2022-10-03T05:12:05;7.3;6.5;
56360;PMS7003;42611;51.132;13.588;2022-10-03T05:17:13;8.3;7.1;
56360;PMS7003;42611;51.132;13.588;2022-10-03T05:22:03;8.0;6.9;
56360;PMS7003;42611;51.132;13.588;2022-10-03T05:27:18;8.2;6.6;
56360;PMS7003;42611;51.132;13.588;2022-10-03T05:37:44;8.5;6.7;
56360;PMS7003;42611;51.132;13.588;2022-10-03T05:42:33;7.8;6.4;
56360;PMS7003;42611;51.132;13.588;2022-10-03T05:47:10;8.2;6.6;
56360;PMS7003;42611;51.132;13.588;2022-10-03T05:52:09;7.6;6.2;
56360;PMS7003;42611;51.132;13.588;2022-10-03T05:57:40;7.1;6.2;
56360;PMS7003;42611;51.132;13.588;2022-10-03T06:02:11;6.9;6.2;
56360;PMS7003;42611;51.132;13.588;2022-10-03T06:07:19;6.8;6.0;
56360;PMS7003;42611;51.132;13.588;2022-10-03T06:12:05;6.5;6.1;
56360;PMS7003;42611;51.132;13.588;2022-10-03T06:22:38;6.2;6.1;
56360;PMS7003;42611;51.132;13.588;2022-10-03T06:27:23;7.0;6.6;
56360;PMS7003;42611;51.132;13.588;2022-10-03T06:32:09;7.3;6.7;
56360;PMS7003;42611;51.132;13.588;2022-10-03T06:37:23;7.4;6.9;
56360;PMS7003;42611;51.132;13.588;2022-10-03T06:42:41;8.4;7.2;
56360;PMS7003;42611;51.132;13.588;2022-10-03T06:47:11;9.4;8.0;
56360;PMS7003;42611;51.132;13.588;2022-10-03T06:52:06;9.6;7.8;
56360;PMS7003;42611;51.132;13.588;2022-10-03T06:57:15;9.3;7.8;
56360;PMS7003;42611;51.132;13.588;2022-10-03T07:02:13;8.7;7.2;
56360;PMS7003;42611;51.132;13.588;2022-10-03T07:07:08;8.2;7.1;
56360;PMS7003;42611;51.132;13.588;2022-10-03T07:17:05;8.6;7.1;
56360;PMS7003;42611;51.132;13.588;2022-10-03T07:27:08;9.4;7.6;
56360;PMS7003;42611;51.132;13.588;2022-10-03T07:32:10;10.4;8.1;
56360;PMS7003;42611;51.132;13.588;2022-10-03T07:37:04;9.9;7.9;
56360;PMS7003;42611;51.132;13.588;2022-10-03T07:42:06;10.2;8.1;
56360;PMS7003;42611;51.132;13.588;2022-10-03T07:47:19;9.6;8.0;
56360;PMS7003;42611;51.132;13.588;2022-10-03T07:52:11;9.3;7.6;
56360;PMS7003;42611;51.132;13.588;2022-10-03T07:57:12;7.9;6.9;
56360;PMS7003;42611;51.132;13.588;2022-10-03T08:07:07;7.4;6.8;
56360;PMS7003;42611;51.132;13.588;2022-10-03T08:12:06;8.0;7.2;
56360;PMS7003;42611;51.132;13.588;2022-10-03T08:17:35;8.9;7.8;
56360;PMS7003;42611;51.132;13.588;2022-10-03T08:22:04;9.8;8.4;
56360;PMS7003;42611;51.132;13.588;2022-10-03T08:27:06;9.9;8.5;
56360;PMS7003;42611;51.132;13.588;2022-10-03T08:37:30;10.1;8.6;
56360;PMS7003;42611;51.132;13.588;2022-10-03T08:42:23;9.5;8.1;
56360;PMS7003;42611;51.132;13.588;2022-10-03T08:47:06;8.5;7.4;
56360;PMS7003;42611;51.132;13.588;2022-10-03T09:07:54;8.6;7.2;
56360;PMS7003;42611;51.132;13.588;2022-10-03T09:22:08;9.2;7.9;
56360;PMS7003;42611;51.132;13.588;2022-10-03T09:27:12;8.9;8.0;
56360;PMS7003;42611;51.132;13.588;2022-10-03T09:32:40;7.9;7.6;
56360;PMS7003;42611;51.132;13.588;2022-10-03T09:42:41;7.5;7.2;
56360;PMS7003;42611;51.132;13.588;2022-10-03T09:52:45;6.6;5.8;
56360;PMS7003;42611;51.132;13.588;2022-10-03T09:57:05;6.5;5.2;
56360;PMS7003;42611;51.132;13.588;2022-10-03T10:02:11;5.4;4.2;
56360;PMS7003;42611;51.132;13.588;2022-10-03T10:07:35;4.9;3.6;
56360;PMS7003;42611;51.132;13.588;2022-10-03T10:17:07;4.2;3.3;
56360;PMS7003;42611;51.132;13.588;2022-10-03T10:22:05;3.1;2.6;
56360;PMS7003;42611;51.132;13.588;2022-10-03T10:32:24;3.2;2.5;
56360;PMS7003;42611;51.132;13.588;2022-10-03T10:37:15;3.1;2.2;
56360;PMS7003;42611;51.132;13.588;2022-10-03T10:42:06;3.4;2.3;
56360;PMS7003;42611;51.132;13.588;2022-10-03T10:52:29;4.4;2.8;
56360;PMS7003;42611;51.132;13.588;2022-10-03T10:57:04;4.3;2.8;
56360;PMS7003;42611;51.132;13.588;2022-10-03T11:02:58;4.4;2.8;
56360;PMS7003;42611;51.132;13.588;2022-10-03T11:17:25;2.7;1.6;
56360;PMS7003;42611;51.132;13.588;2022-10-03T11:37:33;2.5;1.9;
56360;PMS7003;42611;51.132;13.588;2022-10-03T11:42:08;2.7;2.1;
56360;PMS7003;42611;51.132;13.588;2022-10-03T11:47:08;2.8;2.0;
56360;PMS7003;42611;51.132;13.588;2022-10-03T11:52:26;2.6;2.0;
56360;PMS7003;42611;51.132;13.588;2022-10-03T12:02:07;2.2;1.8;
56360;PMS7003;42611;51.132;13.588;2022-10-03T12:07:06;2.0;1.4;
56360;PMS7003;42611;51.132;13.588;2022-10-03T12:12:07;2.2;1.4;
56360;PMS7003;42611;51.132;13.588;2022-10-03T12:17:04;2.4;1.6;
56360;PMS7003;42611;51.132;13.588;2022-10-03T12:22:23;2.2;1.4;
56360;PMS7003;42611;51.132;13.588;2022-10-03T12:27:04;2.5;1.7;
56360;PMS7003;42611;51.132;13.588;2022-10-03T12:37:22;7.0;6.8;
56360;PMS7003;42611;51.132;13.588;2022-10-03T12:42:06;7.1;6.5;
56360;PMS7003;42611;51.132;13.588;2022-10-03T12:52:02;7.7;6.9;
56360;PMS7003;42611;51.132;13.588;2022-10-03T13:02:37;3.6;2.5;
56360;PMS7003;42611;51.132;13.588;2022-10-03T13:07:27;3.5;2.8;
56360;PMS7003;42611;51.132;13.588;2022-10-03T13:12:03;3.7;2.6;
56360;PMS7003;42611;51.132;13.588;2022-10-03T13:17:12;3.6;2.6;
56360;PMS7003;42611;51.132;13.588;2022-10-03T13:22:27;3.0;2.4;
56360;PMS7003;42611;51.132;13.588;2022-10-03T13:27:08;3.2;2.4;
56360;PMS7003;42611;51.132;13.588;2022-10-03T13:32:21;2.8;2.1;
56360;PMS7003;42611;51.132;13.588;2022-10-03T13:37:03;3.2;2.2;
56360;PMS7003;42611;51.132;13.588;2022-10-03T13:43:08;3.0;2.0;
56360;PMS7003;42611;51.132;13.588;2022-10-03T13:47:07;3.5;2.3;
56360;PMS7003;42611;51.132;13.588;2022-10-03T13:52:16;3.6;2.6;
56360;PMS7003;42611;51.132;13.588;2022-10-03T14:02:09;3.2;2.4;
56360;PMS7003;42611;51.132;13.588;2022-10-03T14:07:12;3.6;2.6;
56360;PMS7003;42611;51.132;13.588;2022-10-03T14:12:10;3.2;1.9;
56360;PMS7003;42611;51.132;13.588;2022-10-03T14:17:05;2.8;1.3;
56360;PMS7003;42611;51.132;13.588;2022-10-03T14:22:05;2.9;1.4;
56360;PMS7003;42611;51.132;13.588;2022-10-03T14:27:14;2.7;1.4;
56360;PMS7003;42611;51.132;13.588;2022-10-03T14:32:57;2.9;1.2;
56360;PMS7003;42611;51.132;13.588;2022-10-03T14:37:06;2.7;1.5;
56360;PMS7003;42611;51.132;13.588;2022-10-03T14:42:52;2.8;1.6;
56360;PMS7003;42611;51.132;13.588;2022-10-03T14:47:06;3.0;1.7;
56360;PMS7003;42611;51.132;13.588;2022-10-03T14:52:07;2.5;1.6;
56360;PMS7003;42611;51.132;13.588;2022-10-03T14:57:11;1.9;1.7;
56360;PMS7003;42611;51.132;13.588;2022-10-03T15:07:02;2.3;1.4;
56360;PMS7003;42611;51.132;13.588;2022-10-03T15:12:03;2.4;1.1;
56360;PMS7003;42611;51.132;13.588;2022-10-03T15:17:03;2.2;0.9;
56360;PMS7003;42611;51.132;13.588;2022-10-03T15:22:03;2.4;1.0;
56360;PMS7003;42611;51.132;13.588;2022-10-03T15:27:04;2.3;1.4;
56360;PMS7003;42611;51.132;13.588;2022-10-03T15:32:02;2.5;1.8;
56360;PMS7003;42611;51.132;13.588;2022-10-03T15:42:03;3.3;2.7;
56360;PMS7003;42611;51.132;13.588;2022-10-03T15:47:04;4.4;3.1;
56360;PMS7003;42611;51.132;13.588;2022-10-03T15:52:13;4.2;2.9;
56360;PMS7003;42611;51.132;13.588;2022-10-03T15:57:01;4.1;2.9;
56360;PMS7003;42611;51.132;13.588;2022-10-03T16:02:18;4.4;3.0;
56360;PMS7003;42611;51.132;13.588;2022-10-03T16:07:09;4.6;3.4;
56360;PMS7003;42611;51.132;13.588;2022-10-03T16:12:28;3.9;3.4;
56360;PMS7003;42611;51.132;13.588;2022-10-03T16:17:08;4.4;3.9;
56360;PMS7003;42611;51.132;13.588;2022-10-03T16:22:06;4.2;3.9;
56360;PMS7003;42611;51.132;13.588;2022-10-03T16:27:35;4.0;3.8;
56360;PMS7003;42611;51.132;13.588;2022-10-03T16:32:05;4.8;4.2;
56360;PMS7003;42611;51.132;13.588;2022-10-03T16:37:01;4.5;3.8;
56360;PMS7003;42611;51.132;13.588;2022-10-03T16:42:12;4.6;3.6;
56360;PMS7003;42611;51.132;13.588;2022-10-03T16:47:02;5.0;3.8;
56360;PMS7003;42611;51.132;13.588;2022-10-03T17:03:02;4.4;3.4;
56360;PMS7003;42611;51.132;13.588;2022-10-03T17:08:22;3.7;3.0;
56360;PMS7003;42611;51.132;13.588;2022-10-03T17:13:09;3.3;2.8;
56360;PMS7003;42611;51.132;13.588;2022-10-03T17:28:03;3.3;2.7;
56360;PMS7003;42611;51.132;13.588;2022-10-03T17:33:36;3.7;2.8;
56360;PMS7003;42611;51.132;13.588;2022-10-03T17:43:03;3.6;2.3;
56360;PMS7003;42611;51.132;13.588;2022-10-03T17:48:08;3.2;2.1;
56360;PMS7003;42611;51.132;13.588;2022-10-03T17:53:02;3.0;2.0;
56360;PMS7003;42611;51.132;13.588;2022-10-03T17:58:04;2.4;1.8;
56360;PMS7003;42611;51.132;13.588;2022-10-03T18:03:04;2.0;1.8;
56360;PMS7003;42611;51.132;13.588;2022-10-03T18:08:05;1.7;1.4;
56360;PMS7003;42611;51.132;13.588;2022-10-03T18:13:05;1.5;1.2;
56360;PMS7003;42611;51.132;13.588;2022-10-03T18:18:06;1.8;1.2;
56360;PMS7003;42611;51.132;13.588;2022-10-03T18:23:02;2.0;1.4;
56360;PMS7003;42611;51.132;13.588;2022-10-03T18:33:02;1.9;1.5;
56360;PMS7003;42611;51.132;13.588;2022-10-03T18:38:08;2.2;1.7;
56360;PMS7003;42611;51.132;13.588;2022-10-03T18:43:02;1.6;1.3;
56360;PMS7003;42611;51.132;13.588;2022-10-03T18:48:06;1.8;1.3;
56360;PMS7003;42611;51.132;13.588;2022-10-03T18:53:14;1.5;1.2;
56360;PMS7003;42611;51.132;13.588;2022-10-03T18:58:07;2.1;1.6;
56360;PMS7003;42611;51.132;13.588;2022-10-03T19:03:07;1.9;1.3;
56360;PMS7003;42611;51.132;13.588;2022-10-03T19:14:09;1.4;1.0;
56360;PMS7003;42611;51.132;13.588;2022-10-03T19:23:12;0.7;0.4;
56360;PMS7003;42611;51.132;13.588;2022-10-03T19:28:35;0.6;0.5;
56360;PMS7003;42611;51.132;13.588;2022-10-03T19:33:05;0.4;0.3;
56360;PMS7003;42611;51.132;13.588;2022-10-03T19:38:05;0.8;0.4;
56360;PMS7003;42611;51.132;13.588;2022-10-03T19:43:30;1.0;0.6;
56360;PMS7003;42611;51.132;13.588;2022-10-03T19:48:04;1.3;0.9;
56360;PMS7003;42611;51.132;13.588;2022-10-03T19:58:02;1.8;1.2;
56360;PMS7003;42611;51.132;13.588;2022-10-03T20:03:04;1.2;1.0;
56360;PMS7003;42611;51.132;13.588;2022-10-03T20:13:02;1.4;1.2;
56360;PMS7003;42611;51.132;13.588;2022-10-03T20:23:02;1.2;1.1;
56360;PMS7003;42611;51.132;13.588;2022-10-03T20:28:03;1.4;1.4;
56360;PMS7003;42611;51.132;13.588;2022-10-03T20:33:01;1.5;1.4;
56360;PMS7003;42611;51.132;13.588;2022-10-03T20:38:06;1.4;1.3;
56360;PMS7003;42611;51.132;13.588;2022-10-03T20:48:02;2.4;1.6;
56360;PMS7003;42611;51.132;13.588;2022-10-03T20:58:05;3.0;1.8;
56360;PMS7003;42611;51.132;13.588;2022-10-03T21:03:04;3.4;2.1;
56360;PMS7003;42611;51.132;13.588;2022-10-03T21:08:36;3.2;2.2;
56360;PMS7003;42611;51.132;13.588;2022-10-03T21:14:22;3.1;2.2;
56360;PMS7003;42611;51.132;13.588;2022-10-03T21:18:01;3.7;2.5;
56360;PMS7003;42611;51.132;13.588;2022-10-03T21:23:03;3.2;2.4;
56360;PMS7003;42611;51.132;13.588;2022-10-03T21:28:02;3.0;1.9;
56360;PMS7003;42611;51.132;13.588;2022-10-03T21:33:09;2.4;1.6;
56360;PMS7003;42611;51.132;13.588;2022-10-03T21:38:03;2.6;1.4;
56360;PMS7003;42611;51.132;13.588;2022-10-03T21:43:05;2.2;1.4;
56360;PMS7003;42611;51.132;13.588;2022-10-03T21:48:06;2.1;1.0;
56360;PMS7003;42611;51.132;13.588;2022-10-03T22:03:05;2.2;1.5;
56360;PMS7003;42611;51.132;13.588;2022-10-03T22:14:07;2.3;2.0;
56360;PMS7003;42611;51.132;13.588;2022-10-03T22:19:05;1.8;1.7;
56360;PMS7003;42611;51.132;13.588;2022-10-03T22:24:06;2.2;2.0;
56360;PMS7003;42611;51.132;13.588;2022-10-03T22:34:44;2.3;2.0;
56360;PMS7003;42611;51.132;13.588;2022-10-03T22:39:05;2.4;2.0;
56360;PMS7003;42611;51.132;13.588;2022-10-03T22:44:02;2.2;1.9;
56360;PMS7003;42611;51.132;13.588;2022-10-03T22:49:07;1.8;1.5;
56360;PMS7003;42611;51.132;13.588;2022-10-03T22:54:03;2.4;1.7;
56360;PMS7003;42611;51.132;13.588;2022-10-03T22:59:02;2.3;1.8;
56360;PMS7003;42611;51.132;13.588;2022-10-03T23:04:03;2.0;1.6;
56360;PMS7003;42611;51.132;13.588;2022-10-03T23:09:06;3.1;1.9;
56360;PMS7003;42611;51.132;13.588;2022-10-03T23:14:04;3.5;2.2;
56360;PMS7003;42611;51.132;13.588;2022-10-03T23:19:07;3.4;2.4;
56360;PMS7003;42611;51.132;13.588;2022-10-03T23:24:04;3.3;2.2;
56360;PMS7003;42611;51.132;13.588;2022-10-03T23:29:04;4.0;2.5;
56360;PMS7003;42611;51.132;13.588;2022-10-03T23:34:01;3.0;2.3;
56360;PMS7003;42611;51.132;13.588;2022-10-03T23:39:01;3.2;1.8;
56360;PMS7003;42611;51.132;13.588;2022-10-03T23:44:24;3.0;1.8;
56360;PMS7003;42611;51.132;13.588;2022-10-03T23:54:02;2.8;1.6;
